sensor_id;sensor_type;location;lat;lon;timestamp;temperature;humidity
66422;DHT22;53228;51.380;0.098;2024-01-25T00:00:43;2.20;99.90
66422;DHT22;53228;51.380;0.098;2024-01-25T00:03:11;2.20;99.90
66422;DHT22;53228;51.380;0.098;2024-01-25T00:05:39;2.10;99.90
66422;DHT22;53228;51.380;0.098;2024-01-25T00:08:07;2.10;99.90
66422;DHT22;53228;51.380;0.098;2024-01-25T00:10:35;2.10;99.90
66422;DHT22;53228;51.380;0.098;2024-01-25T00:13:02;2.10;99.90
66422;DHT22;53228;51.380;0.098;2024-01-25T00:15:30;2.10;99.90
66422;DHT22;53228;51.380;0.098;2024-01-25T00:17:58;2.00;99.90
66422;DHT22;53228;51.380;0.098;2024-01-25T00:20:26;2.00;99.90
66422;DHT22;53228;51.380;0.098;2024-01-25T00:22:54;2.00;99.90
66422;DHT22;53228;51.380;0.098;2024-01-25T00:25:21;2.00;99.90
66422;DHT22;53228;51.380;0.098;2024-01-25T00:27:49;2.00;99.90
66422;DHT22;53228;51.380;0.098;2024-01-25T00:30:17;2.00;99.90
66422;DHT22;53228;51.380;0.098;2024-01-25T00:32:45;1.90;99.90
66422;DHT22;53228;51.380;0.098;2024-01-25T00:35:13;2.00;99.90
66422;DHT22;53228;51.380;0.098;2024-01-25T00:37:42;1.00;99.90
66422;DHT22;53228;51.380;0.098;2024-01-25T00:40:12;2.00;99.90
66422;DHT22;53228;51.380;0.098;2024-01-25T00:42:43;2.40;99.90
66422;DHT22;53228;51.380;0.098;2024-01-25T00:45:12;2.10;99.90
66422;DHT22;53228;51.380;0.098;2024-01-25T00:47:40;2.10;99.90
66422;DHT22;53228;51.380;0.098;2024-01-25T00:50:08;2.10;99.90
66422;DHT22;53228;51.380;0.098;2024-01-25T00:52:36;2.10;99.90
66422;DHT22;53228;51.380;0.098;2024-01-25T00:55:04;2.10;99.90
66422;DHT22;53228;51.380;0.098;2024-01-25T00:57:32;2.00;99.90
66422;DHT22;53228;51.380;0.098;2024-01-25T01:00:00;2.00;99.90
66422;DHT22;53228;51.380;0.098;2024-01-25T01:02:30;2.00;99.90
66422;DHT22;53228;51.380;0.098;2024-01-25T01:05:02;2.00;99.90
66422;DHT22;53228;51.380;0.098;2024-01-25T01:07:31;2.00;99.90
66422;DHT22;53228;51.380;0.098;2024-01-25T01:09:58;2.90;99.90
66422;DHT22;53228;51.380;0.098;2024-01-25T01:12:26;2.10;99.90
66422;DHT22;53228;51.380;0.098;2024-01-25T01:14:54;2.10;99.90
66422;DHT22;53228;51.380;0.098;2024-01-25T01:17:22;2.10;99.90
66422;DHT22;53228;51.380;0.098;2024-01-25T01:19:49;2.10;99.90
66422;DHT22;53228;51.380;0.098;2024-01-25T01:22:17;2.20;99.90
66422;DHT22;53228;51.380;0.098;2024-01-25T01:24:45;2.10;99.90
66422;DHT22;53228;51.380;0.098;2024-01-25T01:27:13;2.20;99.90
66422;DHT22;53228;51.380;0.098;2024-01-25T01:29:40;2.20;99.90
66422;DHT22;53228;51.380;0.098;2024-01-25T01:32:08;2.20;99.90
66422;DHT22;53228;51.380;0.098;2024-01-25T01:34:36;2.30;99.90
66422;DHT22;53228;51.380;0.098;2024-01-25T01:37:04;2.30;99.90
66422;DHT22;53228;51.380;0.098;2024-01-25T01:39:31;2.30;99.90
66422;DHT22;53228;51.380;0.098;2024-01-25T01:41:59;2.30;99.90
66422;DHT22;53228;51.380;0.098;2024-01-25T01:44:27;2.40;99.90
66422;DHT22;53228;51.380;0.098;2024-01-25T01:46:54;2.30;99.90
66422;DHT22;53228;51.380;0.098;2024-01-25T01:49:22;2.30;99.90
66422;DHT22;53228;51.380;0.098;2024-01-25T01:51:50;2.40;99.90
66422;DHT22;53228;51.380;0.098;2024-01-25T01:54:19;2.40;99.90
66422;DHT22;53228;51.380;0.098;2024-01-25T01:56:46;2.40;99.90
66422;DHT22;53228;51.380;0.098;2024-01-25T01:59:15;2.40;99.90
66422;DHT22;53228;51.380;0.098;2024-01-25T02:01:43;2.50;99.90
66422;DHT22;53228;51.380;0.098;2024-01-25T02:04:11;2.50;99.90
66422;DHT22;53228;51.380;0.098;2024-01-25T02:06:39;2.50;99.90
66422;DHT22;53228;51.380;0.098;2024-01-25T02:09:07;2.50;99.90
66422;DHT22;53228;51.380;0.098;2024-01-25T02:11:34;2.50;99.90
66422;DHT22;53228;51.380;0.098;2024-01-25T02:14:02;2.50;99.90
66422;DHT22;53228;51.380;0.098;2024-01-25T02:16:30;2.50;99.90
66422;DHT22;53228;51.380;0.098;2024-01-25T02:18:57;2.50;99.90
66422;DHT22;53228;51.380;0.098;2024-01-25T02:21:26;2.50;99.90
66422;DHT22;53228;51.380;0.098;2024-01-25T02:23:53;2.50;99.90
66422;DHT22;53228;51.380;0.098;2024-01-25T02:26:22;2.50;99.90
66422;DHT22;53228;51.380;0.098;2024-01-25T02:28:49;2.60;99.90
66422;DHT22;53228;51.380;0.098;2024-01-25T02:31:21;2.60;99.90
66422;DHT22;53228;51.380;0.098;2024-01-25T02:33:49;2.60;99.90
66422;DHT22;53228;51.380;0.098;2024-01-25T02:36:17;2.60;99.90
66422;DHT22;53228;51.380;0.098;2024-01-25T02:38:45;2.70;99.90
66422;DHT22;53228;51.380;0.098;2024-01-25T02:41:12;2.70;99.90
66422;DHT22;53228;51.380;0.098;2024-01-25T02:43:40;2.70;99.90
66422;DHT22;53228;51.380;0.098;2024-01-25T02:46:08;2.70;99.90
66422;DHT22;53228;51.380;0.098;2024-01-25T02:48:36;2.70;99.90
66422;DHT22;53228;51.380;0.098;2024-01-25T02:51:04;2.80;99.90
66422;DHT22;53228;51.380;0.098;2024-01-25T02:53:32;2.80;99.90
66422;DHT22;53228;51.380;0.098;2024-01-25T02:55:59;2.80;99.90
66422;DHT22;53228;51.380;0.098;2024-01-25T02:58:27;2.90;99.90
66422;DHT22;53228;51.380;0.098;2024-01-25T03:00:55;2.90;99.90
66422;DHT22;53228;51.380;0.098;2024-01-25T03:03:22;3.00;99.90
66422;DHT22;53228;51.380;0.098;2024-01-25T03:05:53;3.00;99.90
66422;DHT22;53228;51.380;0.098;2024-01-25T03:08:21;3.00;99.90
66422;DHT22;53228;51.380;0.098;2024-01-25T03:10:49;3.00;99.90
66422;DHT22;53228;51.380;0.098;2024-01-25T03:13:17;3.00;99.90
66422;DHT22;53228;51.380;0.098;2024-01-25T03:15:45;3.00;99.90
66422;DHT22;53228;51.380;0.098;2024-01-25T03:18:12;3.00;99.90
66422;DHT22;53228;51.380;0.098;2024-01-25T03:20:40;3.00;99.90
66422;DHT22;53228;51.380;0.098;2024-01-25T03:23:08;3.00;99.90
66422;DHT22;53228;51.380;0.098;2024-01-25T03:25:36;3.10;99.90
66422;DHT22;53228;51.380;0.098;2024-01-25T03:28:04;3.10;99.90
66422;DHT22;53228;51.380;0.098;2024-01-25T03:30:34;3.20;99.90
66422;DHT22;53228;51.380;0.098;2024-01-25T03:33:02;3.30;99.90
66422;DHT22;53228;51.380;0.098;2024-01-25T03:35:30;3.30;99.90
66422;DHT22;53228;51.380;0.098;2024-01-25T03:37:58;3.30;99.90
66422;DHT22;53228;51.380;0.098;2024-01-25T03:40:25;3.40;99.90
66422;DHT22;53228;51.380;0.098;2024-01-25T03:42:53;3.40;99.90
66422;DHT22;53228;51.380;0.098;2024-01-25T03:45:41;3.40;99.90
66422;DHT22;53228;51.380;0.098;2024-01-25T03:48:08;3.60;99.90
66422;DHT22;53228;51.380;0.098;2024-01-25T03:50:36;3.70;99.90
66422;DHT22;53228;51.380;0.098;2024-01-25T03:53:04;3.80;99.90
66422;DHT22;53228;51.380;0.098;2024-01-25T03:55:33;4.00;99.90
66422;DHT22;53228;51.380;0.098;2024-01-25T03:58:01;4.10;99.90
66422;DHT22;53228;51.380;0.098;2024-01-25T04:00:29;4.30;99.90
66422;DHT22;53228;51.380;0.098;2024-01-25T04:02:58;4.50;99.90
66422;DHT22;53228;51.380;0.098;2024-01-25T04:05:26;4.60;99.90
66422;DHT22;53228;51.380;0.098;2024-01-25T04:07:54;4.70;99.90
66422;DHT22;53228;51.380;0.098;2024-01-25T04:10:21;4.80;99.90
66422;DHT22;53228;51.380;0.098;2024-01-25T04:12:49;4.90;99.90
66422;DHT22;53228;51.380;0.098;2024-01-25T04:15:17;4.90;99.90
66422;DHT22;53228;51.380;0.098;2024-01-25T04:17:45;5.00;99.90
66422;DHT22;53228;51.380;0.098;2024-01-25T04:20:15;5.00;99.90
66422;DHT22;53228;51.380;0.098;2024-01-25T04:22:43;5.40;99.90
66422;DHT22;53228;51.380;0.098;2024-01-25T04:25:11;5.10;99.90
66422;DHT22;53228;51.380;0.098;2024-01-25T04:27:39;5.10;99.90
66422;DHT22;53228;51.380;0.098;2024-01-25T04:30:07;5.20;99.90
66422;DHT22;53228;51.380;0.098;2024-01-25T04:32:35;5.20;99.90
66422;DHT22;53228;51.380;0.098;2024-01-25T04:35:03;5.20;99.90
66422;DHT22;53228;51.380;0.098;2024-01-25T04:37:31;5.20;99.90
66422;DHT22;53228;51.380;0.098;2024-01-25T04:39:59;5.20;99.90
66422;DHT22;53228;51.380;0.098;2024-01-25T04:42:27;4.70;99.90
66422;DHT22;53228;51.380;0.098;2024-01-25T04:44:55;5.30;99.90
66422;DHT22;53228;51.380;0.098;2024-01-25T04:47:23;5.40;99.90
66422;DHT22;53228;51.380;0.098;2024-01-25T04:49:50;5.40;99.90
66422;DHT22;53228;51.380;0.098;2024-01-25T04:52:18;5.50;99.90
66422;DHT22;53228;51.380;0.098;2024-01-25T04:54:46;5.60;99.90
66422;DHT22;53228;51.380;0.098;2024-01-25T04:57:14;5.60;99.90
66422;DHT22;53228;51.380;0.098;2024-01-25T04:59:41;5.70;99.90
66422;DHT22;53228;51.380;0.098;2024-01-25T05:02:09;5.70;99.90
66422;DHT22;53228;51.380;0.098;2024-01-25T05:04:37;5.80;99.90
66422;DHT22;53228;51.380;0.098;2024-01-25T05:07:05;5.80;99.90
66422;DHT22;53228;51.380;0.098;2024-01-25T05:09:32;5.80;99.90
66422;DHT22;53228;51.380;0.098;2024-01-25T05:12:00;5.80;99.90
66422;DHT22;53228;51.380;0.098;2024-01-25T05:14:29;5.80;99.90
66422;DHT22;53228;51.380;0.098;2024-01-25T05:16:57;5.80;99.90
66422;DHT22;53228;51.380;0.098;2024-01-25T05:19:24;5.90;99.90
66422;DHT22;53228;51.380;0.098;2024-01-25T05:21:53;5.90;99.90
66422;DHT22;53228;51.380;0.098;2024-01-25T05:24:20;5.90;99.90
66422;DHT22;53228;51.380;0.098;2024-01-25T05:26:48;5.90;99.90
66422;DHT22;53228;51.380;0.098;2024-01-25T05:29:16;5.90;99.90
66422;DHT22;53228;51.380;0.098;2024-01-25T05:31:43;6.00;99.90
66422;DHT22;53228;51.380;0.098;2024-01-25T05:34:11;5.90;99.90
66422;DHT22;53228;51.380;0.098;2024-01-25T05:36:39;6.00;99.90
66422;DHT22;53228;51.380;0.098;2024-01-25T05:39:09;6.00;99.90
66422;DHT22;53228;51.380;0.098;2024-01-25T05:41:36;6.00;99.90
66422;DHT22;53228;51.380;0.098;2024-01-25T05:44:04;6.00;99.90
66422;DHT22;53228;51.380;0.098;2024-01-25T05:46:32;6.00;99.90
66422;DHT22;53228;51.380;0.098;2024-01-25T05:48:59;6.00;99.90
66422;DHT22;53228;51.380;0.098;2024-01-25T05:51:27;6.10;99.90
66422;DHT22;53228;51.380;0.098;2024-01-25T05:53:55;6.10;99.90
66422;DHT22;53228;51.380;0.098;2024-01-25T05:56:23;6.10;99.90
66422;DHT22;53228;51.380;0.098;2024-01-25T05:58:52;6.20;99.90
66422;DHT22;53228;51.380;0.098;2024-01-25T06:01:20;6.20;99.90
66422;DHT22;53228;51.380;0.098;2024-01-25T06:03:48;6.20;99.90
66422;DHT22;53228;51.380;0.098;2024-01-25T06:06:16;6.30;99.90
66422;DHT22;53228;51.380;0.098;2024-01-25T06:08:44;6.40;99.90
66422;DHT22;53228;51.380;0.098;2024-01-25T06:11:25;6.50;99.90
66422;DHT22;53228;51.380;0.098;2024-01-25T06:13:52;6.60;99.90
66422;DHT22;53228;51.380;0.098;2024-01-25T06:16:20;6.70;99.90
66422;DHT22;53228;51.380;0.098;2024-01-25T06:18:48;6.80;99.90
66422;DHT22;53228;51.380;0.098;2024-01-25T06:21:15;6.80;99.90
66422;DHT22;53228;51.380;0.098;2024-01-25T06:23:43;6.80;99.90
66422;DHT22;53228;51.380;0.098;2024-01-25T06:26:11;6.90;99.90
66422;DHT22;53228;51.380;0.098;2024-01-25T06:28:39;6.90;99.90
66422;DHT22;53228;51.380;0.098;2024-01-25T06:31:08;6.90;99.90
66422;DHT22;53228;51.380;0.098;2024-01-25T06:33:38;6.90;99.90
66422;DHT22;53228;51.380;0.098;2024-01-25T06:36:06;7.00;99.90
66422;DHT22;53228;51.380;0.098;2024-01-25T06:38:34;7.00;99.90
66422;DHT22;53228;51.380;0.098;2024-01-25T06:41:03;7.00;99.90
66422;DHT22;53228;51.380;0.098;2024-01-25T06:43:31;7.00;99.90
66422;DHT22;53228;51.380;0.098;2024-01-25T06:45:58;7.00;99.90
66422;DHT22;53228;51.380;0.098;2024-01-25T06:48:26;7.00;99.90
66422;DHT22;53228;51.380;0.098;2024-01-25T06:50:54;7.00;99.90
66422;DHT22;53228;51.380;0.098;2024-01-25T06:53:22;7.00;99.90
66422;DHT22;53228;51.380;0.098;2024-01-25T06:55:50;7.10;99.90
66422;DHT22;53228;51.380;0.098;2024-01-25T06:58:18;7.10;99.90
66422;DHT22;53228;51.380;0.098;2024-01-25T07:00:46;7.10;99.90
66422;DHT22;53228;51.380;0.098;2024-01-25T07:03:15;7.10;99.90
66422;DHT22;53228;51.380;0.098;2024-01-25T07:05:43;7.10;99.90
66422;DHT22;53228;51.380;0.098;2024-01-25T07:08:11;7.10;99.90
66422;DHT22;53228;51.380;0.098;2024-01-25T07:10:41;7.20;99.90
66422;DHT22;53228;51.380;0.098;2024-01-25T07:13:09;7.20;99.90
66422;DHT22;53228;51.380;0.098;2024-01-25T07:15:37;7.20;99.90
66422;DHT22;53228;51.380;0.098;2024-01-25T07:18:05;7.20;99.90
66422;DHT22;53228;51.380;0.098;2024-01-25T07:20:33;7.20;99.90
66422;DHT22;53228;51.380;0.098;2024-01-25T07:23:01;7.20;99.90
66422;DHT22;53228;51.380;0.098;2024-01-25T07:25:29;7.30;99.90
66422;DHT22;53228;51.380;0.098;2024-01-25T07:27:56;7.30;99.90
66422;DHT22;53228;51.380;0.098;2024-01-25T07:30:24;7.30;99.90
66422;DHT22;53228;51.380;0.098;2024-01-25T07:32:52;7.30;99.90
66422;DHT22;53228;51.380;0.098;2024-01-25T07:35:20;7.30;99.90
66422;DHT22;53228;51.380;0.098;2024-01-25T07:37:48;7.40;99.90
66422;DHT22;53228;51.380;0.098;2024-01-25T07:40:15;7.40;99.90
66422;DHT22;53228;51.380;0.098;2024-01-25T07:42:45;7.40;99.90
66422;DHT22;53228;51.380;0.098;2024-01-25T07:45:14;7.40;99.90
66422;DHT22;53228;51.380;0.098;2024-01-25T07:47:42;7.40;99.90
66422;DHT22;53228;51.380;0.098;2024-01-25T07:50:11;7.50;99.90
66422;DHT22;53228;51.380;0.098;2024-01-25T07:52:39;7.50;99.90
66422;DHT22;53228;51.380;0.098;2024-01-25T07:55:07;7.50;99.90
66422;DHT22;53228;51.380;0.098;2024-01-25T07:57:35;7.50;99.90
66422;DHT22;53228;51.380;0.098;2024-01-25T08:00:03;7.60;99.90
66422;DHT22;53228;51.380;0.098;2024-01-25T08:02:32;7.60;99.90
66422;DHT22;53228;51.380;0.098;2024-01-25T08:05:00;8.60;99.90
66422;DHT22;53228;51.380;0.098;2024-01-25T08:07:30;7.60;99.90
66422;DHT22;53228;51.380;0.098;2024-01-25T08:09:59;7.60;99.90
66422;DHT22;53228;51.380;0.098;2024-01-25T08:12:26;7.60;99.90
66422;DHT22;53228;51.380;0.098;2024-01-25T08:14:54;7.60;99.90
66422;DHT22;53228;51.380;0.098;2024-01-25T08:17:22;7.60;99.90
66422;DHT22;53228;51.380;0.098;2024-01-25T08:19:50;7.60;99.90
66422;DHT22;53228;51.380;0.098;2024-01-25T08:22:19;7.60;99.90
66422;DHT22;53228;51.380;0.098;2024-01-25T08:24:49;7.60;99.90
66422;DHT22;53228;51.380;0.098;2024-01-25T08:27:17;7.60;99.90
66422;DHT22;53228;51.380;0.098;2024-01-25T08:29:45;7.60;99.90
66422;DHT22;53228;51.380;0.098;2024-01-25T08:32:12;7.70;99.90
66422;DHT22;53228;51.380;0.098;2024-01-25T08:34:40;7.70;99.90
66422;DHT22;53228;51.380;0.098;2024-01-25T08:37:08;7.70;99.90
66422;DHT22;53228;51.380;0.098;2024-01-25T08:39:36;7.70;99.90
66422;DHT22;53228;51.380;0.098;2024-01-25T08:42:04;7.70;99.90
66422;DHT22;53228;51.380;0.098;2024-01-25T08:44:33;7.70;99.90
66422;DHT22;53228;51.380;0.098;2024-01-25T08:47:01;7.70;99.90
66422;DHT22;53228;51.380;0.098;2024-01-25T08:49:29;7.80;99.90
66422;DHT22;53228;51.380;0.098;2024-01-25T08:51:56;7.80;99.90
66422;DHT22;53228;51.380;0.098;2024-01-25T08:54:24;7.80;99.90
66422;DHT22;53228;51.380;0.098;2024-01-25T08:56:52;7.80;99.90
66422;DHT22;53228;51.380;0.098;2024-01-25T08:59:20;7.80;99.90
66422;DHT22;53228;51.380;0.098;2024-01-25T09:01:49;7.90;99.90
66422;DHT22;53228;51.380;0.098;2024-01-25T09:04:17;7.90;99.90
66422;DHT22;53228;51.380;0.098;2024-01-25T09:06:47;7.90;99.90
66422;DHT22;53228;51.380;0.098;2024-01-25T09:09:15;7.90;99.90
66422;DHT22;53228;51.380;0.098;2024-01-25T09:11:42;7.90;99.90
66422;DHT22;53228;51.380;0.098;2024-01-25T09:14:10;8.00;99.90
66422;DHT22;53228;51.380;0.098;2024-01-25T09:16:38;8.00;99.90
66422;DHT22;53228;51.380;0.098;2024-01-25T09:19:06;8.10;99.90
66422;DHT22;53228;51.380;0.098;2024-01-25T09:21:34;8.10;99.90
66422;DHT22;53228;51.380;0.098;2024-01-25T09:24:02;8.10;99.90
66422;DHT22;53228;51.380;0.098;2024-01-25T09:26:29;8.10;99.90
66422;DHT22;53228;51.380;0.098;2024-01-25T09:28:57;8.10;99.90
66422;DHT22;53228;51.380;0.098;2024-01-25T09:31:25;8.20;99.90
66422;DHT22;53228;51.380;0.098;2024-01-25T09:33:53;8.20;99.90
66422;DHT22;53228;51.380;0.098;2024-01-25T09:36:21;8.20;99.90
66422;DHT22;53228;51.380;0.098;2024-01-25T09:38:49;8.30;99.90
66422;DHT22;53228;51.380;0.098;2024-01-25T09:41:17;8.30;99.90
66422;DHT22;53228;51.380;0.098;2024-01-25T09:43:46;8.30;99.90
66422;DHT22;53228;51.380;0.098;2024-01-25T09:46:14;8.30;99.90
66422;DHT22;53228;51.380;0.098;2024-01-25T09:48:44;8.40;99.90
66422;DHT22;53228;51.380;0.098;2024-01-25T09:51:14;8.40;99.90
66422;DHT22;53228;51.380;0.098;2024-01-25T09:53:42;8.40;99.90
66422;DHT22;53228;51.380;0.098;2024-01-25T09:56:12;8.50;99.90
66422;DHT22;53228;51.380;0.098;2024-01-25T09:58:42;8.50;99.90
66422;DHT22;53228;51.380;0.098;2024-01-25T10:01:11;8.50;99.90
66422;DHT22;53228;51.380;0.098;2024-01-25T10:03:43;8.50;99.90
66422;DHT22;53228;51.380;0.098;2024-01-25T10:06:12;8.80;99.90
66422;DHT22;53228;51.380;0.098;2024-01-25T10:08:40;8.70;99.90
66422;DHT22;53228;51.380;0.098;2024-01-25T10:11:09;8.70;99.90
66422;DHT22;53228;51.380;0.098;2024-01-25T10:13:42;8.80;99.90
66422;DHT22;53228;51.380;0.098;2024-01-25T10:16:14;8.80;99.90
66422;DHT22;53228;51.380;0.098;2024-01-25T10:18:45;8.90;99.90
66422;DHT22;53228;51.380;0.098;2024-01-25T10:21:14;8.90;99.90
66422;DHT22;53228;51.380;0.098;2024-01-25T10:23:46;9.00;99.90
66422;DHT22;53228;51.380;0.098;2024-01-25T10:26:16;9.00;99.90
66422;DHT22;53228;51.380;0.098;2024-01-25T10:28:54;9.10;99.90
66422;DHT22;53228;51.380;0.098;2024-01-25T10:31:29;9.10;99.90
66422;DHT22;53228;51.380;0.098;2024-01-25T10:33:57;9.20;99.90
66422;DHT22;53228;51.380;0.098;2024-01-25T10:36:26;9.20;99.90
66422;DHT22;53228;51.380;0.098;2024-01-25T10:38:56;9.30;99.90
66422;DHT22;53228;51.380;0.098;2024-01-25T10:41:24;9.30;99.90
66422;DHT22;53228;51.380;0.098;2024-01-25T10:43:55;9.40;99.90
66422;DHT22;53228;51.380;0.098;2024-01-25T10:46:24;9.40;99.90
66422;DHT22;53228;51.380;0.098;2024-01-25T10:48:53;9.40;99.90
66422;DHT22;53228;51.380;0.098;2024-01-25T10:51:26;9.50;99.90
66422;DHT22;53228;51.380;0.098;2024-01-25T10:53:54;9.50;99.90
66422;DHT22;53228;51.380;0.098;2024-01-25T10:56:22;9.60;99.90
66422;DHT22;53228;51.380;0.098;2024-01-25T10:58:50;9.60;99.90
66422;DHT22;53228;51.380;0.098;2024-01-25T11:01:18;9.60;99.90
66422;DHT22;53228;51.380;0.098;2024-01-25T11:03:46;9.70;99.90
66422;DHT22;53228;51.380;0.098;2024-01-25T11:06:15;9.20;99.90
66422;DHT22;53228;51.380;0.098;2024-01-25T11:08:43;9.80;99.90
66422;DHT22;53228;51.380;0.098;2024-01-25T11:11:13;9.80;99.90
66422;DHT22;53228;51.380;0.098;2024-01-25T11:13:42;9.80;99.90
66422;DHT22;53228;51.380;0.098;2024-01-25T11:16:15;9.80;99.90
66422;DHT22;53228;51.380;0.098;2024-01-25T11:18:55;9.80;99.90
66422;DHT22;53228;51.380;0.098;2024-01-25T11:21:42;9.80;99.90
66422;DHT22;53228;51.380;0.098;2024-01-25T11:24:20;9.90;99.90
66422;DHT22;53228;51.380;0.098;2024-01-25T11:26:49;9.90;99.90
66422;DHT22;53228;51.380;0.098;2024-01-25T11:29:19;9.90;99.90
66422;DHT22;53228;51.380;0.098;2024-01-25T11:31:48;9.90;99.90
66422;DHT22;53228;51.380;0.098;2024-01-25T11:34:16;9.90;99.90
66422;DHT22;53228;51.380;0.098;2024-01-25T11:36:45;9.90;99.90
66422;DHT22;53228;51.380;0.098;2024-01-25T11:39:14;10.00;99.90
66422;DHT22;53228;51.380;0.098;2024-01-25T11:41:44;10.00;99.90
66422;DHT22;53228;51.380;0.098;2024-01-25T11:44:12;10.10;99.90
66422;DHT22;53228;51.380;0.098;2024-01-25T11:46:41;10.10;99.90
66422;DHT22;53228;51.380;0.098;2024-01-25T11:49:10;10.30;99.90
66422;DHT22;53228;51.380;0.098;2024-01-25T11:51:38;10.40;99.90
66422;DHT22;53228;51.380;0.098;2024-01-25T11:54:06;10.50;99.90
66422;DHT22;53228;51.380;0.098;2024-01-25T11:56:38;10.60;99.90
66422;DHT22;53228;51.380;0.098;2024-01-25T11:59:09;10.70;99.90
66422;DHT22;53228;51.380;0.098;2024-01-25T12:01:38;10.90;99.90
66422;DHT22;53228;51.380;0.098;2024-01-25T12:04:07;11.00;99.90
66422;DHT22;53228;51.380;0.098;2024-01-25T12:06:36;11.00;99.90
66422;DHT22;53228;51.380;0.098;2024-01-25T12:11:36;11.10;99.90
66422;DHT22;53228;51.380;0.098;2024-01-25T12:14:05;11.10;99.90
66422;DHT22;53228;51.380;0.098;2024-01-25T12:16:32;11.10;99.90
66422;DHT22;53228;51.380;0.098;2024-01-25T12:19:04;11.10;99.90
66422;DHT22;53228;51.380;0.098;2024-01-25T12:21:33;11.20;99.90
66422;DHT22;53228;51.380;0.098;2024-01-25T12:24:02;11.10;99.90
66422;DHT22;53228;51.380;0.098;2024-01-25T12:26:37;11.10;99.90
66422;DHT22;53228;51.380;0.098;2024-01-25T12:29:05;11.10;99.90
66422;DHT22;53228;51.380;0.098;2024-01-25T12:31:33;11.10;99.90
66422;DHT22;53228;51.380;0.098;2024-01-25T12:36:29;11.00;99.90
66422;DHT22;53228;51.380;0.098;2024-01-25T12:38:57;11.00;99.90
66422;DHT22;53228;51.380;0.098;2024-01-25T12:41:28;11.00;99.90
66422;DHT22;53228;51.380;0.098;2024-01-25T12:43:56;11.00;99.90
66422;DHT22;53228;51.380;0.098;2024-01-25T12:46:24;10.90;99.90
66422;DHT22;53228;51.380;0.098;2024-01-25T12:48:55;10.90;99.90
66422;DHT22;53228;51.380;0.098;2024-01-25T12:51:26;10.90;99.90
66422;DHT22;53228;51.380;0.098;2024-01-25T12:53:55;10.90;99.90
66422;DHT22;53228;51.380;0.098;2024-01-25T12:56:22;10.90;99.90
66422;DHT22;53228;51.380;0.098;2024-01-25T12:58:50;10.90;99.90
66422;DHT22;53228;51.380;0.098;2024-01-25T13:01:19;10.90;99.90
66422;DHT22;53228;51.380;0.098;2024-01-25T13:03:48;10.90;99.90
66422;DHT22;53228;51.380;0.098;2024-01-25T13:06:16;10.90;99.90
66422;DHT22;53228;51.380;0.098;2024-01-25T13:08:44;10.90;99.90
66422;DHT22;53228;51.380;0.098;2024-01-25T13:11:12;10.90;99.90
66422;DHT22;53228;51.380;0.098;2024-01-25T13:13:40;10.90;99.90
66422;DHT22;53228;51.380;0.098;2024-01-25T13:16:08;10.90;99.90
66422;DHT22;53228;51.380;0.098;2024-01-25T13:18:36;10.90;99.90
66422;DHT22;53228;51.380;0.098;2024-01-25T13:21:04;10.90;99.90
66422;DHT22;53228;51.380;0.098;2024-01-25T13:23:32;11.00;99.90
66422;DHT22;53228;51.380;0.098;2024-01-25T13:25:59;11.00;99.90
66422;DHT22;53228;51.380;0.098;2024-01-25T13:28:27;11.00;99.90
66422;DHT22;53228;51.380;0.098;2024-01-25T13:30:57;11.00;99.90
66422;DHT22;53228;51.380;0.098;2024-01-25T13:33:26;12.40;99.90
66422;DHT22;53228;51.380;0.098;2024-01-25T13:35:54;11.00;99.90
66422;DHT22;53228;51.380;0.098;2024-01-25T13:38:22;11.00;99.90
66422;DHT22;53228;51.380;0.098;2024-01-25T13:40:50;11.00;99.90
66422;DHT22;53228;51.380;0.098;2024-01-25T13:43:18;11.00;99.90
66422;DHT22;53228;51.380;0.098;2024-01-25T13:45:46;11.10;99.90
66422;DHT22;53228;51.380;0.098;2024-01-25T13:48:14;11.10;99.90
66422;DHT22;53228;51.380;0.098;2024-01-25T13:50:42;11.10;99.90
66422;DHT22;53228;51.380;0.098;2024-01-25T13:53:10;11.10;99.90
66422;DHT22;53228;51.380;0.098;2024-01-25T13:55:38;11.20;99.90
66422;DHT22;53228;51.380;0.098;2024-01-25T13:58:05;11.20;99.90
66422;DHT22;53228;51.380;0.098;2024-01-25T14:00:33;11.20;99.90
66422;DHT22;53228;51.380;0.098;2024-01-25T14:03:01;11.20;99.90
66422;DHT22;53228;51.380;0.098;2024-01-25T14:05:29;11.30;99.90
66422;DHT22;53228;51.380;0.098;2024-01-25T14:07:57;11.30;99.90
66422;DHT22;53228;51.380;0.098;2024-01-25T14:10:24;11.30;99.90
66422;DHT22;53228;51.380;0.098;2024-01-25T14:12:55;11.30;99.90
66422;DHT22;53228;51.380;0.098;2024-01-25T14:15:23;11.40;99.90
66422;DHT22;53228;51.380;0.098;2024-01-25T14:17:51;11.40;99.90
66422;DHT22;53228;51.380;0.098;2024-01-25T14:20:19;11.40;99.90
66422;DHT22;53228;51.380;0.098;2024-01-25T14:22:47;11.40;99.90
66422;DHT22;53228;51.380;0.098;2024-01-25T14:25:15;11.40;99.90
66422;DHT22;53228;51.380;0.098;2024-01-25T14:27:43;11.40;99.90
66422;DHT22;53228;51.380;0.098;2024-01-25T14:30:11;11.50;99.90
66422;DHT22;53228;51.380;0.098;2024-01-25T14:32:39;11.60;99.90
66422;DHT22;53228;51.380;0.098;2024-01-25T14:35:08;13.10;99.90
66422;DHT22;53228;51.380;0.098;2024-01-25T14:37:36;11.60;99.90
66422;DHT22;53228;51.380;0.098;2024-01-25T14:40:04;11.70;99.90
66422;DHT22;53228;51.380;0.098;2024-01-25T14:42:52;11.70;99.90
66422;DHT22;53228;51.380;0.098;2024-01-25T14:45:20;11.70;99.90
66422;DHT22;53228;51.380;0.098;2024-01-25T14:47:47;11.70;99.90
66422;DHT22;53228;51.380;0.098;2024-01-25T14:50:15;11.80;99.90
66422;DHT22;53228;51.380;0.098;2024-01-25T14:52:43;11.80;99.90
66422;DHT22;53228;51.380;0.098;2024-01-25T14:55:10;11.80;99.90
66422;DHT22;53228;51.380;0.098;2024-01-25T14:57:38;11.90;99.90
66422;DHT22;53228;51.380;0.098;2024-01-25T15:00:07;11.90;99.90
66422;DHT22;53228;51.380;0.098;2024-01-25T15:02:35;11.90;99.90
66422;DHT22;53228;51.380;0.098;2024-01-25T15:05:03;11.90;99.90
66422;DHT22;53228;51.380;0.098;2024-01-25T15:07:31;11.90;99.90
66422;DHT22;53228;51.380;0.098;2024-01-25T15:09:59;12.00;99.90
66422;DHT22;53228;51.380;0.098;2024-01-25T15:12:28;12.00;99.90
66422;DHT22;53228;51.380;0.098;2024-01-25T15:14:56;12.00;99.90
66422;DHT22;53228;51.380;0.098;2024-01-25T15:17:24;12.00;99.90
66422;DHT22;53228;51.380;0.098;2024-01-25T15:19:52;12.00;99.90
66422;DHT22;53228;51.380;0.098;2024-01-25T15:22:20;12.00;99.90
66422;DHT22;53228;51.380;0.098;2024-01-25T15:24:50;12.00;99.90
66422;DHT22;53228;51.380;0.098;2024-01-25T15:27:18;12.00;99.90
66422;DHT22;53228;51.380;0.098;2024-01-25T15:29:46;12.00;99.90
66422;DHT22;53228;51.380;0.098;2024-01-25T15:32:14;12.00;99.90
66422;DHT22;53228;51.380;0.098;2024-01-25T15:34:42;12.00;99.90
66422;DHT22;53228;51.380;0.098;2024-01-25T15:37:10;12.00;99.90
66422;DHT22;53228;51.380;0.098;2024-01-25T15:39:39;12.00;99.90
66422;DHT22;53228;51.380;0.098;2024-01-25T15:42:07;12.00;99.90
66422;DHT22;53228;51.380;0.098;2024-01-25T15:44:34;12.00;99.90
66422;DHT22;53228;51.380;0.098;2024-01-25T15:47:02;12.00;99.90
66422;DHT22;53228;51.380;0.098;2024-01-25T15:49:29;12.00;99.90
66422;DHT22;53228;51.380;0.098;2024-01-25T15:51:57;12.00;99.90
66422;DHT22;53228;51.380;0.098;2024-01-25T15:54:25;12.00;99.90